Terminal Aerodrome Forecast
Issued by NWS Jacksonville, FL

Home | Current Version | Previous Version | Text Only | Print | Product List | Glossary On
Versions: 1 2 3 4 5 6 7 8 9 10 11 12 13 14 15 16 17 18 19 20 21 22 23 24 25 26 27 28 29 30 31 32 33
000
FTUS42 KJAX 201700
TAFSSI
TAF
KSSI 201732Z 2018/2118 36010G15KT P6SM SCT007 OVC015
      TEMPO 2018/2020 5SM -RA OVC008
     FM210000 02011KT P6SM SCT015 BKN025
     FM210800 02010KT P6SM SCT010 BKN020
     FM211400 01011KT P6SM SCT020=

USA.gov is the U.S. government's official web portal to all federal, state and local government web resources and services.